Time;durP1;ratioP1;P1;durP2;ratioP2;P2;SDS_P1;SDS_P2;PMS_P1;PMS_P2;Temp;Humidity;BMP_temperature;BMP_pressure;BME280_temperature;BME280_humidity;BME280_pressure;Samples;Min_cycle;Max_cycle;Signal;HPM_P1;HPM_P2
2023/07/17 00:01:31;;;;;;;4.47;3.47;;;16.60;99.20;;;;;;10090842;29;20925;-90
2023/07/17 00:06:34;;;;;;;4.75;2.67;;;16.50;99.20;;;;;;10047078;29;20321;-90
2023/07/17 00:11:36;;;;;;;5.90;2.70;;;16.60;99.80;;;;;;10062815;29;20722;-91
2023/07/17 00:16:39;;;;;;;3.42;2.63;;;16.70;99.70;;;;;;10059792;29;20238;-92
2023/07/17 00:21:42;;;;;;;8.60;4.30;;;16.80;99.00;;;;;;10091932;29;20264;-91
2023/07/17 00:26:44;;;;;;;4.97;3.83;;;16.80;98.60;;;;;;10088013;29;20265;-91
2023/07/17 00:31:47;;;;;;;6.50;3.15;;;16.40;98.80;;;;;;10076202;29;20708;-91
2023/07/17 00:36:49;;;;;;;7.35;3.95;;;16.30;99.90;;;;;;10062739;29;20282;-91
2023/07/17 00:41:52;;;;;;;6.05;3.80;;;16.30;99.80;;;;;;10055980;29;20275;-92
2023/07/17 00:46:55;;;;;;;4.93;3.63;;;16.30;99.90;;;;;;10040284;29;20253;-91
2023/07/17 00:51:59;;;;;;;5.75;3.63;;;16.20;99.90;;;;;;10056086;29;20236;-91
2023/07/17 00:57:04;;;;;;;4.80;3.33;;;16.20;99.90;;;;;;10055383;29;20253;-91
2023/07/17 01:02:08;;;;;;;6.53;4.55;;;16.30;99.90;;;;;;10056074;29;20657;-91
2023/07/17 01:07:11;;;;;;;3.08;2.75;;;16.40;99.90;;;;;;10056836;29;20707;-92
2023/07/17 01:12:13;;;;;;;7.80;3.72;;;16.40;99.90;;;;;;10039883;29;20278;-91
2023/07/17 01:17:16;;;;;;;5.68;3.78;;;16.50;99.90;;;;;;10056763;29;20244;-91
2023/07/17 01:22:26;;;;;;;7.75;4.25;;;16.50;99.90;;;;;;10039315;29;20273;-91
2023/07/17 01:27:28;;;;;;;4.18;3.28;;;16.20;99.50;;;;;;10064487;29;20329;-91
2023/07/17 01:32:33;;;;;;;7.13;3.72;;;15.90;99.90;;;;;;10043026;29;20302;-91
2023/07/17 01:37:39;;;;;;;5.13;3.70;;;15.70;99.90;;;;;;10077146;29;20241;-91
2023/07/17 01:42:41;;;;;;;7.95;3.80;;;16.00;99.90;;;;;;10040550;29;20240;-90
2023/07/17 01:47:44;;;;;;;6.57;3.88;;;16.00;99.90;;;;;;10070305;29;20264;-91
2023/07/17 01:52:47;;;;;;;6.43;3.90;;;15.70;99.90;;;;;;10050776;29;20266;-91
2023/07/17 01:57:49;;;;;;;3.95;3.50;;;15.70;99.90;;;;;;10088370;29;20384;-91
2023/07/17 02:02:52;;;;;;;6.40;3.95;;;15.60;99.90;;;;;;10050194;29;20285;-91
2023/07/17 02:07:54;;;;;;;12.35;4.55;;;16.00;99.90;;;;;;10080119;29;20268;-91
2023/07/17 02:12:57;;;;;;;5.88;4.35;;;16.20;99.90;;;;;;10065472;29;20245;-91
2023/07/17 02:18:00;;;;;;;6.15;4.13;;;16.30;99.90;;;;;;10054035;29;20309;-91
2023/07/17 02:23:03;;;;;;;7.70;4.20;;;16.30;99.90;;;;;;10059924;29;20325;-92
2023/07/17 02:28:09;;;;;;;8.63;3.60;;;16.50;99.90;;;;;;10068686;29;20316;-91
2023/07/17 02:33:12;;;;;;;4.88;4.20;;;16.70;99.90;;;;;;10039400;29;20245;-91
2023/07/17 02:38:14;;;;;;;8.32;4.38;;;16.80;99.90;;;;;;10076201;29;20317;-90
2023/07/17 02:43:17;;;;;;;6.13;4.40;;;16.90;99.90;;;;;;10069380;29;20309;-91
2023/07/17 02:48:19;;;;;;;5.32;4.00;;;17.10;99.90;;;;;;10040979;29;20321;-91
2023/07/17 02:53:22;;;;;;;4.20;3.80;;;17.10;99.90;;;;;;10044775;29;20716;-92
2023/07/17 02:58:24;;;;;;;6.72;4.68;;;16.90;99.90;;;;;;10035877;29;20773;-91
2023/07/17 03:03:28;;;;;;;5.88;4.32;;;16.90;99.90;;;;;;10060176;29;20629;-91
2023/07/17 03:08:32;;;;;;;7.50;4.85;;;17.10;99.90;;;;;;10073912;29;20304;-91
2023/07/17 03:13:35;;;;;;;5.68;4.35;;;17.10;99.90;;;;;;10072960;29;20240;-91
2023/07/17 03:18:37;;;;;;;6.70;4.07;;;17.20;99.90;;;;;;10074168;29;20506;-91
2023/07/17 03:23:40;;;;;;;8.35;4.35;;;17.30;99.90;;;;;;10064096;29;20277;-91
2023/07/17 03:28:42;;;;;;;5.40;4.32;;;17.30;99.90;;;;;;10039201;29;20329;-91
2023/07/17 03:33:45;;;;;;;8.05;4.93;;;17.20;99.90;;;;;;10043205;29;20693;-91
2023/07/17 03:38:48;;;;;;;9.77;4.75;;;17.40;99.90;;;;;;10056413;29;20273;-91
2023/07/17 03:43:50;;;;;;;8.45;4.43;;;17.50;99.90;;;;;;10065603;29;20248;-91
2023/07/17 03:48:53;;;;;;;10.30;4.75;;;17.60;99.90;;;;;;10059003;29;20260;-91
2023/07/17 03:53:56;;;;;;;4.25;3.13;;;17.80;99.80;;;;;;10070448;29;20319;-90
2023/07/17 03:58:59;;;;;;;8.55;4.47;;;18.00;99.90;;;;;;10054047;29;20241;-91
2023/07/17 04:04:05;;;;;;;6.40;5.30;;;18.20;99.80;;;;;;10063366;29;20651;-92
2023/07/17 04:09:09;;;;;;;7.43;4.38;;;18.50;98.70;;;;;;10076372;29;20265;-91
2023/07/17 04:14:13;;;;;;;8.43;5.45;;;18.60;98.60;;;;;;10062928;29;20277;-92
2023/07/17 04:19:16;;;;;;;5.63;4.70;;;18.60;98.60;;;;;;10070134;29;20249;-92
2023/07/17 04:24:19;;;;;;;8.80;4.88;;;18.60;98.70;;;;;;10072477;29;20240;-92
2023/07/17 04:29:24;;;;;;;13.20;4.55;;;18.70;98.90;;;;;;10074636;29;20269;-92
2023/07/17 04:34:32;;;;;;;3.47;3.17;;;19.00;98.50;;;;;;10060556;29;20241;-89
2023/07/17 04:39:34;;;;;;;10.25;5.25;;;19.30;97.90;;;;;;10063519;29;20229;-90
2023/07/17 04:44:39;;;;;;;5.22;3.95;;;19.50;96.70;;;;;;10075646;29;20245;-90
2023/07/17 04:49:42;;;;;;;11.00;6.15;;;19.60;96.60;;;;;;10078973;29;20240;-90
2023/07/17 04:54:44;;;;;;;2.92;2.63;;;19.70;96.50;;;;;;10051642;29;20286;-89
2023/07/17 04:59:47;;;;;;;11.70;5.30;;;20.10;95.60;;;;;;10045407;29;20304;-90
2023/07/17 05:04:51;;;;;;;6.80;4.25;;;20.30;95.50;;;;;;10076852;29;20244;-90
2023/07/17 05:09:55;;;;;;;10.85;5.70;;;20.40;94.60;;;;;;10077502;29;20304;-88
2023/07/17 05:14:57;;;;;;;9.35;5.60;;;20.30;95.60;;;;;;10073381;29;20301;-90
2023/07/17 05:20:00;;;;;;;5.53;3.28;;;20.40;96.10;;;;;;10069270;29;20309;-90
2023/07/17 05:25:03;;;;;;;10.60;5.72;;;20.70;95.70;;;;;;10071645;29;20925;-89
2023/07/17 05:30:07;;;;;;;9.60;5.22;;;20.90;94.00;;;;;;10076647;29;20261;-89
2023/07/17 05:35:10;;;;;;;12.65;5.30;;;21.10;92.90;;;;;;10059251;29;20249;-90
2023/07/17 05:40:13;;;;;;;13.77;5.65;;;21.10;92.00;;;;;;10059811;29;20281;-89
2023/07/17 05:45:15;;;;;;;4.93;3.75;;;21.10;91.60;;;;;;10077540;29;20260;-90
2023/07/17 05:50:19;;;;;;;11.55;5.03;;;21.30;91.20;;;;;;10094108;29;20244;-90
2023/07/17 05:55:22;;;;;;;16.85;6.25;;;21.40;90.50;;;;;;10075080;29;20245;-91
2023/07/17 06:00:27;;;;;;;6.05;4.10;;;21.50;87.90;;;;;;10087416;29;20237;-90
2023/07/17 06:05:30;;;;;;;9.00;4.63;;;21.80;88.50;;;;;;10054898;29;20321;-90
2023/07/17 06:10:33;;;;;;;5.93;4.18;;;21.90;85.30;;;;;;10076334;29;20286;-90
2023/07/17 06:15:35;;;;;;;8.02;4.20;;;22.00;84.10;;;;;;10073550;29;20265;-90
2023/07/17 06:20:38;;;;;;;9.05;4.57;;;22.30;83.40;;;;;;10089531;29;21002;-90
2023/07/17 06:25:41;;;;;;;6.18;3.92;;;22.50;78.40;;;;;;10112873;29;20275;-90
2023/07/17 06:30:47;;;;;;;6.50;3.90;;;22.70;76.50;;;;;;10083352;29;20241;-90
2023/07/17 06:35:49;;;;;;;9.98;4.88;;;22.90;76.20;;;;;;10069081;29;20768;-89
2023/07/17 06:40:53;;;;;;;6.25;3.60;;;23.10;70.90;;;;;;10078465;29;20253;-90
2023/07/17 06:45:55;;;;;;;5.20;2.95;;;23.20;70.60;;;;;;10056964;29;20297;-89
2023/07/17 06:50:58;;;;;;;7.38;4.05;;;23.50;68.40;;;;;;10056454;29;20249;-89
2023/07/17 06:56:01;;;;;;;4.50;3.53;;;23.70;62.70;;;;;;10055358;29;20253;-88
2023/07/17 07:01:03;;;;;;;5.30;3.45;;;24.00;57.80;;;;;;10086883;29;20252;-89
2023/07/17 07:06:06;;;;;;;5.70;3.42;;;24.40;58.80;;;;;;10082901;29;20316;-88
2023/07/17 07:11:10;;;;;;;5.40;3.20;;;24.70;57.20;;;;;;10047122;29;20245;-88
2023/07/17 07:16:13;;;;;;;3.90;3.42;;;25.00;53.70;;;;;;10067500;29;20248;-88
2023/07/17 07:21:15;;;;;;;4.75;3.47;;;25.20;52.00;;;;;;10072635;29;20297;-88
2023/07/17 07:26:18;;;;;;;5.45;3.88;;;25.50;48.00;;;;;;10083914;29;20268;-89
2023/07/17 07:31:21;;;;;;;5.45;3.33;;;25.70;42.30;;;;;;10087823;29;20932;-88
2023/07/17 07:36:25;;;;;;;3.92;3.20;;;25.90;38.90;;;;;;10127737;29;20311;-88
2023/07/17 07:41:28;;;;;;;4.05;3.50;;;26.10;41.00;;;;;;10101140;29;20664;-89
2023/07/17 07:46:30;;;;;;;6.65;3.67;;;26.40;38.70;;;;;;10061651;29;20324;-89
2023/07/17 07:51:33;;;;;;;5.85;3.53;;;26.60;35.40;;;;;;10084680;29;20245;-89
2023/07/17 07:56:36;;;;;;;4.97;3.55;;;26.80;33.00;;;;;;10075476;29;20312;-89
2023/07/17 08:01:38;;;;;;;4.97;3.20;;;26.80;30.50;;;;;;10076615;29;20253;-88
2023/07/17 08:06:41;;;;;;;3.58;3.22;;;26.80;30.30;;;;;;10034258;29;20257;-88
2023/07/17 08:11:43;;;;;;;3.17;2.83;;;26.80;31.40;;;;;;10050992;29;20650;-89
2023/07/17 08:16:46;;;;;;;4.20;2.65;;;26.80;26.50;;;;;;10050988;29;20245;-89
2023/07/17 08:21:49;;;;;;;4.38;3.45;;;26.90;27.40;;;;;;10058170;29;20305;-89
2023/07/17 08:26:51;;;;;;;6.78;3.03;;;26.90;26.00;;;;;;10094906;29;20336;-89
2023/07/17 08:31:54;;;;;;;3.75;2.92;;;27.00;29.20;;;;;;10047386;29;20274;-89
2023/07/17 08:36:58;;;;;;;3.47;2.78;;;27.20;27.20;;;;;;10057402;29;20633;-88
2023/07/17 08:42:01;;;;;;;3.33;2.92;;;27.40;26.40;;;;;;10058992;29;20252;-89
2023/07/17 08:47:07;;;;;;;6.40;3.13;;;27.30;26.90;;;;;;10054531;29;20265;-89
2023/07/17 08:52:11;;;;;;;3.85;3.00;;;27.20;28.60;;;;;;10056106;29;20313;-89
2023/07/17 08:57:14;;;;;;;3.85;3.00;;;27.30;26.30;;;;;;10056411;29;20298;-89
2023/07/17 09:02:17;;;;;;;5.10;3.53;;;27.30;26.30;;;;;;10054635;29;20249;-89
2023/07/17 09:07:20;;;;;;;3.50;3.10;;;27.40;21.50;;;;;;10076300;29;20272;-89
2023/07/17 09:12:23;;;;;;;3.67;2.80;;;27.70;26.20;;;;;;10092790;29;20252;-89
2023/07/17 09:17:26;;;;;;;4.35;2.85;;;27.70;25.60;;;;;;10093113;29;20248;-88
2023/07/17 09:22:29;;;;;;;3.42;3.13;;;27.50;26.00;;;;;;10050482;29;20298;-89
2023/07/17 09:27:58;;;;;;;3.35;3.05;;;27.50;25.80;;;;;;10054216;29;20272;-88
2023/07/17 09:33:06;;;;;;;4.57;2.80;;;27.50;23.20;;;;;;10072360;29;20710;-90
2023/07/17 09:38:10;;;;;;;3.45;3.15;;;27.50;23.60;;;;;;10062420;29;20305;-89
2023/07/17 09:43:13;;;;;;;4.55;2.80;;;27.40;23.80;;;;;;10091252;29;20281;-90
2023/07/17 09:48:16;;;;;;;3.63;3.28;;;27.50;18.10;;;;;;10052707;29;20269;-89
2023/07/17 09:53:20;;;;;;;3.95;3.20;;;27.50;20.50;;;;;;10075288;29;20304;-89
2023/07/17 09:58:26;;;;;;;3.53;3.22;;;27.40;23.90;;;;;;10087797;29;20787;-89
2023/07/17 10:03:31;;;;;;;3.63;1.67;;;27.50;21.50;;;;;;10091087;29;20949;-88
2023/07/17 10:08:34;;;;;;;4.40;3.08;;;27.50;19.80;;;;;;10080625;29;20807;-89
2023/07/17 10:13:36;;;;;;;8.38;3.67;;;27.40;20.80;;;;;;10054387;29;20237;-89
2023/07/17 10:18:48;;;;;;;4.97;3.30;;;27.40;21.20;;;;;;10038088;29;20270;-87
2023/07/17 10:23:50;;;;;;;5.43;3.15;;;27.40;23.60;;;;;;10036533;29;20293;-91
2023/07/17 10:28:54;;;;;;;7.38;3.22;;;27.10;16.50;;;;;;10036615;29;20264;-92
2023/07/17 10:34:05;;;;;;;8.18;3.53;;;27.10;16.30;;;;;;10052700;29;20708;-91
2023/07/17 10:39:08;;;;;;;3.25;2.53;;;27.10;15.20;;;;;;10035894;29;20256;-91
2023/07/17 10:44:19;;;;;;;9.43;3.03;;;27.20;16.70;;;;;;10051851;29;20269;-91
2023/07/17 10:49:22;;;;;;;6.28;3.50;;;27.50;16.30;;;;;;10035832;29;20699;-92
2023/07/17 10:54:26;;;;;;;6.60;3.75;;;27.50;16.00;;;;;;10051973;29;20241;-91
2023/07/17 10:59:30;;;;;;;2.97;2.38;;;27.40;15.20;;;;;;10045211;29;20698;-93
2023/07/17 11:04:33;;;;;;;5.15;2.25;;;27.30;17.10;;;;;;10077056;29;20274;-96
2023/07/17 11:09:36;;;;;;;3.75;2.47;;;27.30;17.00;;;;;;10058123;29;20241;-95
2023/07/17 11:14:39;;;;;;;7.97;3.83;;;27.50;19.10;;;;;;10080984;29;20294;-94
2023/07/17 11:19:42;;;;;;;5.68;3.53;;;27.90;17.20;;;;;;10042806;29;20700;-92
2023/07/17 11:24:45;;;;;;;3.42;2.50;;;28.10;19.40;;;;;;10074846;29;20308;-94
2023/07/17 11:29:50;;;;;;;7.30;4.00;;;28.10;25.10;;;;;;10060364;29;20266;-95
2023/07/17 11:34:54;;;;;;;6.68;2.85;;;28.20;23.50;;;;;;10058790;29;20786;-95
2023/07/17 11:39:57;;;;;;;6.22;3.13;;;28.30;24.70;;;;;;10044531;29;20254;-95
2023/07/17 11:45:00;;;;;;;2.53;1.90;;;28.40;24.40;;;;;;10060028;29;20241;-92
2023/07/17 11:50:03;;;;;;;3.95;3.05;;;28.20;28.30;;;;;;10073323;29;20276;-92
2023/07/17 11:55:06;;;;;;;5.63;3.53;;;28.20;22.00;;;;;;10090619;29;20308;-92
2023/07/17 12:00:10;;;;;;;4.10;3.42;;;28.20;32.90;;;;;;10078667;29;20232;-92
2023/07/17 12:05:15;;;;;;;5.80;3.70;;;28.20;31.40;;;;;;10094813;29;20249;-92
2023/07/17 12:10:17;;;;;;;5.13;3.78;;;28.20;23.50;;;;;;10089585;29;20302;-92
2023/07/17 12:15:22;;;;;;;4.20;3.13;;;28.20;25.30;;;;;;10041744;29;20237;-91
2023/07/17 12:20:26;;;;;;;5.70;4.65;;;28.30;29.30;;;;;;10057930;29;20710;-91
2023/07/17 12:25:30;;;;;;;6.40;2.95;;;28.30;28.10;;;;;;10041386;29;20313;-91
2023/07/17 12:30:33;;;;;;;4.95;3.35;;;28.40;28.40;;;;;;10056475;29;20276;-91
2023/07/17 12:35:35;;;;;;;3.38;2.85;;;28.50;28.10;;;;;;10040527;29;20241;-92
2023/07/17 12:40:38;;;;;;;4.05;3.53;;;28.50;27.60;;;;;;10042780;29;20233;-94
2023/07/17 12:45:46;;;;;;;7.95;4.18;;;28.60;24.60;;;;;;10057139;29;20330;-96
2023/07/17 12:50:51;;;;;;;3.97;2.50;;;28.80;28.70;;;;;;10084963;29;20233;-95
2023/07/17 12:55:58;;;;;;;6.68;4.25;;;28.80;27.90;;;;;;10075600;29;20218;-95
2023/07/17 13:01:18;;;;;;;8.18;3.90;;;28.60;25.00;;;;;;10080746;23;20781;-86
2023/07/17 13:06:22;;;;;;;7.28;4.38;;;28.50;21.60;;;;;;10153015;29;20705;-83
2023/07/17 13:11:25;;;;;;;5.95;3.75;;;28.30;26.30;;;;;;10134755;29;20343;-83
2023/07/17 13:16:27;;;;;;;4.82;4.30;;;28.30;31.70;;;;;;10143214;29;20311;-85
2023/07/17 13:21:30;;;;;;;4.60;3.72;;;28.30;25.70;;;;;;10171064;29;20243;-84
2023/07/17 13:26:33;;;;;;;5.05;3.88;;;28.40;21.90;;;;;;10168268;29;20310;-84
2023/07/17 13:31:36;;;;;;;5.40;3.88;;;28.20;21.70;;;;;;10167540;29;20719;-84
2023/07/17 13:36:39;;;;;;;6.72;4.07;;;28.10;22.00;;;;;;10131751;29;20248;-84
2023/07/17 13:41:43;;;;;;;6.30;4.07;;;28.20;24.20;;;;;;10133366;29;20290;-85
2023/07/17 13:46:48;;;;;;;5.40;4.00;;;28.20;25.40;;;;;;10167426;29;20620;-85
2023/07/17 13:51:50;;;;;;;8.00;4.60;;;28.00;13.30;;;;;;10168890;29;20271;-84
2023/07/17 13:56:53;;;;;;;6.20;4.28;;;28.00;12.60;;;;;;10152089;29;20247;-85
2023/07/17 14:01:58;;;;;;;6.10;4.18;;;28.20;12.20;;;;;;10151987;29;20276;-88
2023/07/17 14:07:02;;;;;;;5.32;3.83;;;28.10;18.00;;;;;;10130808;29;20269;-88
2023/07/17 14:12:05;;;;;;;6.53;4.32;;;28.20;21.50;;;;;;10145131;29;20820;-86
2023/07/17 14:17:08;;;;;;;6.75;3.90;;;28.20;24.00;;;;;;10167343;29;20243;-85
2023/07/17 14:22:11;;;;;;;7.60;3.35;;;28.20;7.40;;;;;;10166697;29;20671;-89
2023/07/17 14:27:13;;;;;;;6.18;3.15;;;28.30;20.70;;;;;;10151166;29;20691;-87
2023/07/17 14:32:16;;;;;;;5.32;4.00;;;28.30;23.30;;;;;;10166457;29;20303;-86
2023/07/17 14:37:18;;;;;;;4.35;3.75;;;28.20;14.40;;;;;;10167760;29;20247;-87
2023/07/17 14:42:21;;;;;;;9.95;3.95;;;28.30;19.20;;;;;;10163885;29;20251;-85
2023/07/17 14:47:24;;;;;;;3.75;2.50;;;28.20;7.60;;;;;;10162505;29;20267;-85
2023/07/17 14:52:28;;;;;;;4.28;3.10;;;28.00;13.60;;;;;;10136144;29;20239;-86
2023/07/17 14:57:30;;;;;;;6.28;3.85;;;28.00;13.00;;;;;;10148540;29;20251;-89
2023/07/17 15:02:33;;;;;;;6.10;3.63;;;28.10;15.10;;;;;;10152937;29;20298;-87
2023/07/17 15:07:36;;;;;;;5.88;3.03;;;28.10;12.30;;;;;;10135115;29;20730;-84
2023/07/17 15:12:38;;;;;;;5.20;3.35;;;27.70;9.80;;;;;;10136603;29;20265;-86
2023/07/17 15:17:41;;;;;;;7.07;3.97;;;27.70;11.80;;;;;;10140877;29;20292;-83
2023/07/17 15:22:44;;;;;;;11.70;3.42;;;27.70;9.00;;;;;;10161514;29;20243;-85
2023/07/17 15:27:46;;;;;;;4.15;3.28;;;27.60;11.30;;;;;;10161781;29;20326;-86
2023/07/17 15:32:49;;;;;;;6.35;3.20;;;27.80;11.80;;;;;;10150784;29;20235;-85
2023/07/17 15:37:52;;;;;;;6.35;3.60;;;27.80;13.40;;;;;;10137660;29;20243;-86
2023/07/17 15:42:54;;;;;;;6.57;3.65;;;27.70;17.00;;;;;;10167247;29;20239;-85
2023/07/17 15:47:57;;;;;;;10.27;3.50;;;27.60;15.40;;;;;;10167192;29;20314;-84
2023/07/17 15:52:59;;;;;;;4.78;3.80;;;27.70;15.70;;;;;;10163831;29;20255;-85
2023/07/17 15:58:02;;;;;;;4.10;3.70;;;28.00;21.60;;;;;;10149267;29;20239;-86
2023/07/17 16:03:05;;;;;;;6.97;3.28;;;28.10;17.50;;;;;;10149657;29;20240;-85
2023/07/17 16:08:07;;;;;;;3.95;3.15;;;28.00;8.70;;;;;;10177897;29;20295;-85
2023/07/17 16:13:10;;;;;;;3.58;2.92;;;28.10;17.90;;;;;;10165209;29;20244;-85
2023/07/17 16:18:13;;;;;;;4.97;3.58;;;27.90;20.00;;;;;;10166679;29;20243;-85
2023/07/17 16:23:15;;;;;;;4.40;2.88;;;27.80;7.50;;;;;;10155391;29;20643;-89
2023/07/17 16:28:18;;;;;;;5.03;2.95;;;27.90;18.60;;;;;;10127974;29;20272;-88
2023/07/17 16:33:21;;;;;;;4.10;3.13;;;27.80;13.40;;;;;;10128024;29;20244;-88
2023/07/17 16:38:24;;;;;;;5.88;3.05;;;27.70;18.40;;;;;;10156636;29;20706;-85
2023/07/17 16:43:27;;;;;;;9.27;3.53;;;27.60;7.80;;;;;;10116877;29;20312;-88
2023/07/17 16:48:29;;;;;;;6.07;2.78;;;27.70;15.80;;;;;;10171100;29;20275;-88
2023/07/17 16:53:32;;;;;;;6.88;2.97;;;27.90;9.80;;;;;;10155414;29;20279;-86
2023/07/17 16:58:36;;;;;;;4.07;2.63;;;28.10;10.30;;;;;;10127263;29;20252;-84
2023/07/17 17:03:39;;;;;;;6.07;2.63;;;28.10;9.50;;;;;;10148447;23;20723;-88
2023/07/17 17:08:42;;;;;;;5.88;2.50;;;27.80;5.80;;;;;;10116675;29;20292;-88
2023/07/17 17:13:45;;;;;;;6.63;3.53;;;27.70;5.90;;;;;;10133525;29;20288;-88
2023/07/17 17:18:47;;;;;;;8.20;3.25;;;27.60;4.30;;;;;;10132832;29;20240;-88
2023/07/17 17:23:50;;;;;;;7.07;2.90;;;27.60;5.60;;;;;;10132537;29;20313;-88
2023/07/17 17:28:52;;;;;;;7.50;3.50;;;27.60;5.90;;;;;;10116233;29;20677;-89
2023/07/17 17:33:55;;;;;;;5.18;2.55;;;27.50;5.90;;;;;;10132227;29;20661;-90
2023/07/17 17:38:58;;;;;;;4.43;2.85;;;27.40;7.50;;;;;;10155358;29;20248;-89
2023/07/17 17:44:01;;;;;;;7.38;3.20;;;27.20;7.30;;;;;;10131686;29;20259;-89
2023/07/17 17:49:03;;;;;;;5.50;3.85;;;27.00;8.10;;;;;;10131832;29;20719;-89
2023/07/17 17:54:06;;;;;;;8.00;4.18;;;26.80;7.80;;;;;;10129895;29;20443;-89
2023/07/17 17:59:08;;;;;;;6.72;3.58;;;26.70;7.90;;;;;;10130801;29;20240;-88
2023/07/17 18:04:11;;;;;;;9.00;4.35;;;26.60;7.90;;;;;;10131121;29;20661;-89
2023/07/17 18:09:14;;;;;;;5.10;3.17;;;26.40;7.20;;;;;;10112033;29;20267;-89
2023/07/17 18:14:17;;;;;;;5.90;3.35;;;26.30;8.70;;;;;;10130874;29;20307;-88
2023/07/17 18:19:37;;;;;;;10.68;3.95;;;26.20;8.90;;;;;;10096899;29;20208;-88
2023/07/17 18:24:40;;;;;;;8.32;3.85;;;26.00;9.00;;;;;;10102219;29;20727;-89
2023/07/17 18:29:42;;;;;;;6.70;3.10;;;25.80;8.40;;;;;;10119273;29;20289;-89
2023/07/17 18:34:45;;;;;;;5.63;3.15;;;25.70;11.70;;;;;;10101728;29;20209;-91
2023/07/17 18:39:48;;;;;;;5.35;3.70;;;25.70;11.50;;;;;;10121022;29;20209;-90
2023/07/17 18:44:50;;;;;;;3.78;3.30;;;25.60;12.50;;;;;;10092856;29;20208;-91
2023/07/17 18:49:53;;;;;;;3.97;2.90;;;25.40;12.50;;;;;;10109301;29;20315;-90
2023/07/17 18:54:57;;;;;;;4.88;3.38;;;25.30;12.90;;;;;;10122950;29;20212;-90
2023/07/17 19:00:00;;;;;;;6.50;3.25;;;25.10;13.10;;;;;;10106854;29;20223;-89
2023/07/17 19:05:03;;;;;;;4.82;2.95;;;25.00;13.60;;;;;;10108535;29;20253;-90
2023/07/17 19:10:06;;;;;;;5.82;3.08;;;24.70;14.80;;;;;;10112584;29;20303;-90
2023/07/17 19:15:10;;;;;;;10.75;3.60;;;24.50;15.40;;;;;;10130672;29;20233;-90
2023/07/17 19:20:13;;;;;;;7.95;4.70;;;24.30;15.00;;;;;;10082026;29;20273;-91
2023/07/17 19:25:15;;;;;;;6.72;4.25;;;24.00;15.00;;;;;;9788716;29;10000399;-91
2023/07/17 19:30:18;;;;;;;7.45;3.97;;;23.80;15.80;;;;;;10134331;29;20292;-91
2023/07/17 19:35:21;;;;;;;9.30;4.03;;;23.60;16.40;;;;;;10129611;29;20240;-91
2023/07/17 19:40:24;;;;;;;14.45;3.38;;;23.40;17.10;;;;;;10129459;29;20256;-90
2023/07/17 19:45:26;;;;;;;9.73;4.00;;;23.10;17.80;;;;;;10131731;29;20228;-91
2023/07/17 19:50:29;;;;;;;10.90;4.38;;;22.90;18.30;;;;;;10114882;29;20861;-90
2023/07/17 19:55:32;;;;;;;5.18;3.58;;;22.60;20.30;;;;;;10108272;29;20261;-90
2023/07/17 20:00:36;;;;;;;12.43;4.68;;;22.40;21.70;;;;;;10126249;29;21024;-90
2023/07/17 20:05:38;;;;;;;13.15;3.83;;;22.30;22.60;;;;;;10092905;29;20216;-91
2023/07/17 20:10:41;;;;;;;8.35;3.65;;;22.20;23.50;;;;;;10097381;29;20304;-90
2023/07/17 20:15:44;;;;;;;8.68;3.90;;;22.10;23.60;;;;;;10140397;29;20216;-91
2023/07/17 20:20:46;;;;;;;6.82;3.50;;;21.80;24.20;;;;;;10159040;29;20301;-91
2023/07/17 20:25:49;;;;;;;5.40;3.88;;;21.80;25.60;;;;;;10198689;29;20199;-91
2023/07/17 20:30:51;;;;;;;7.65;4.20;;;21.90;26.10;;;;;;10212057;28;20284;-91
2023/07/17 20:35:54;;;;;;;6.05;2.97;;;21.70;25.70;;;;;;10163183;29;20204;-89
2023/07/17 20:40:57;;;;;;;7.78;3.65;;;21.80;26.90;;;;;;10146979;29;20224;-91
2023/07/17 20:45:59;;;;;;;5.45;3.05;;;21.80;26.60;;;;;;10181519;29;20228;-91
2023/07/17 20:51:10;;;;;;;4.57;3.22;;;21.90;27.10;;;;;;10148353;29;20249;-91
2023/07/17 20:56:12;;;;;;;7.15;3.42;;;21.90;27.30;;;;;;10179861;29;20237;-90
2023/07/17 21:01:20;;;;;;;5.07;2.88;;;21.90;25.70;;;;;;10161615;29;20240;-90
2023/07/17 21:06:25;;;;;;;5.63;2.90;;;21.90;27.40;;;;;;10158805;29;20193;-90
2023/07/17 21:11:28;;;;;;;4.60;3.00;;;21.90;27.80;;;;;;10167044;29;20224;-90
2023/07/17 21:16:32;;;;;;;4.22;2.78;;;21.90;27.80;;;;;;10165173;29;20204;-90
2023/07/17 21:21:35;;;;;;;8.75;4.05;;;21.90;28.20;;;;;;10171784;29;20201;-89
2023/07/17 21:26:38;;;;;;;4.88;3.17;;;21.90;26.40;;;;;;10182925;29;20212;-90
2023/07/17 21:31:40;;;;;;;7.35;3.25;;;22.10;29.00;;;;;;10166628;29;20233;-90
2023/07/17 21:36:43;;;;;;;4.38;3.10;;;22.30;26.10;;;;;;10166598;29;20229;-89
2023/07/17 21:41:46;;;;;;;4.70;3.00;;;22.40;23.00;;;;;;10163570;29;20228;-90
2023/07/17 21:46:48;;;;;;;6.20;3.22;;;22.50;22.90;;;;;;10165444;29;20221;-90
2023/07/17 21:51:51;;;;;;;5.22;2.92;;;22.70;27.60;;;;;;10148211;29;20237;-89
2023/07/17 21:56:54;;;;;;;6.35;4.00;;;22.80;22.70;;;;;;10157430;29;20225;-88
2023/07/17 22:01:56;;;;;;;3.35;2.67;;;22.70;23.20;;;;;;10171978;29;20236;-87
2023/07/17 22:06:59;;;;;;;9.35;3.58;;;22.30;28.30;;;;;;10124444;29;20276;-87
2023/07/17 22:12:01;;;;;;;3.35;2.28;;;21.80;37.20;;;;;;10119803;29;20278;-86
2023/07/17 22:17:04;;;;;;;3.67;2.47;;;21.70;40.40;;;;;;10137566;29;20245;-87
2023/07/17 22:22:07;;;;;;;4.40;2.33;;;22.20;39.60;;;;;;10134111;29;20204;-87
2023/07/17 22:27:10;;;;;;;2.80;2.33;;;22.30;39.20;;;;;;10130217;29;20256;-87
2023/07/17 22:32:13;;;;;;;2.83;2.53;;;22.20;40.70;;;;;;10129843;29;20339;-87
2023/07/17 22:37:17;;;;;;;4.70;2.85;;;21.90;42.80;;;;;;10134682;29;20212;-87
2023/07/17 22:42:21;;;;;;;4.57;2.83;;;21.80;44.80;;;;;;10116577;29;20221;-87
2023/07/17 22:47:23;;;;;;;6.13;2.72;;;21.80;49.60;;;;;;10133159;29;20241;-87
2023/07/17 22:52:26;;;;;;;6.40;3.20;;;20.90;57.50;;;;;;10130408;29;20324;-87
2023/07/17 22:57:29;;;;;;;6.13;3.30;;;20.20;71.80;;;;;;10130066;29;20241;-87
2023/07/17 23:02:31;;;;;;;6.47;3.45;;;20.10;77.60;;;;;;10106139;29;20267;-87
2023/07/17 23:07:34;;;;;;;6.32;3.75;;;20.20;80.70;;;;;;10131107;29;20252;-88
2023/07/17 23:12:40;;;;;;;7.57;3.53;;;19.90;87.00;;;;;;10131375;29;20789;-87
2023/07/17 23:17:43;;;;;;;7.85;4.43;;;19.60;91.60;;;;;;10113066;29;20244;-88
2023/07/17 23:22:45;;;;;;;5.45;3.53;;;19.40;93.40;;;;;;10113165;29;20303;-87
2023/07/17 23:27:48;;;;;;;5.63;3.65;;;19.20;94.20;;;;;;10130095;29;20254;-88
2023/07/17 23:32:51;;;;;;;4.75;3.00;;;18.80;97.20;;;;;;10130147;29;20732;-87
2023/07/17 23:37:53;;;;;;;6.90;3.67;;;18.70;97.10;;;;;;10130776;29;20213;-87
2023/07/17 23:42:57;;;;;;;3.53;2.50;;;18.90;97.00;;;;;;10129263;29;20231;-87
2023/07/17 23:48:00;;;;;;;4.35;3.08;;;19.00;95.60;;;;;;10102100;29;20252;-87
2023/07/17 23:53:03;;;;;;;4.07;2.60;;;19.40;94.20;;;;;;10102109;29;21027;-87
2023/07/17 23:58:05;;;;;;;2.95;2.40;;;19.60;93.20;;;;;;10121637;29;20280;-88
